TimeCDT,TemperatureF,Dew PointF,Humidity,Sea Level PressureIn,VisibilityMPH,Wind Direction,Wind SpeedMPH,Gust SpeedMPH,PrecipitationIn,Events,Conditions,WindDirDegrees,DateUTC
12:54 AM,57.0,50.0,77,30.04,10.0,ESE,4.6,-,N/A,,Clear,120,2013-06-04 05:54:00
1:54 AM,55.0,50.0,83,30.04,10.0,SE,5.8,-,N/A,,Clear,130,2013-06-04 06:54:00
2:54 AM,55.0,50.0,83,30.05,10.0,ESE,5.8,-,N/A,,Clear,120,2013-06-04 07:54:00
3:54 AM,53.1,48.9,86,30.04,10.0,ESE,6.9,-,N/A,,Clear,110,2013-06-04 08:54:00
4:54 AM,54.0,48.9,83,30.05,10.0,ESE,5.8,-,N/A,,Clear,110,2013-06-04 09:54:00
5:54 AM,53.1,48.9,86,30.06,10.0,SE,5.8,-,N/A,,Clear,130,2013-06-04 10:54:00
6:54 AM,55.0,50.0,83,30.05,10.0,SE,9.2,-,N/A,,Clear,130,2013-06-04 11:54:00
7:54 AM,59.0,50.0,72,30.06,10.0,SE,9.2,-,N/A,,Clear,130,2013-06-04 12:54:00
8:54 AM,64.0,50.0,60,30.06,10.0,South,15.0,20.7,N/A,,Clear,170,2013-06-04 13:54:00
9:54 AM,64.9,50.0,58,30.07,10.0,SSE,9.2,-,N/A,,Clear,150,2013-06-04 14:54:00
10:54 AM,66.0,51.1,59,30.09,10.0,SSE,4.6,-,N/A,,Clear,160,2013-06-04 15:54:00
11:54 AM,69.1,53.1,57,30.10,10.0,North,5.8,-,N/A,,Mostly Cloudy,350,2013-06-04 16:54:00
12:54 PM,71.1,54.0,55,30.08,10.0,Variable,4.6,-,N/A,,Scattered Clouds,0,2013-06-04 17:54:00
1:54 PM,72.0,54.0,53,30.06,10.0,ENE,5.8,-,N/A,,Clear,70,2013-06-04 18:54:00
2:54 PM,72.0,55.0,55,30.04,10.0,ESE,10.4,-,N/A,,Clear,110,2013-06-04 19:54:00
3:54 PM,71.1,55.0,57,30.02,10.0,SE,12.7,-,N/A,,Clear,130,2013-06-04 20:54:00
4:54 PM,72.0,53.1,51,30.01,10.0,SE,11.5,-,N/A,,Partly Cloudy,130,2013-06-04 21:54:00
5:54 PM,72.0,53.1,51,30.01,10.0,SSE,8.1,-,N/A,,Partly Cloudy,150,2013-06-04 22:54:00
6:54 PM,70.0,54.0,57,29.99,10.0,East,8.1,-,N/A,,Clear,90,2013-06-04 23:54:00
7:54 PM,69.1,55.9,63,30.00,10.0,ESE,6.9,-,N/A,,Clear,120,2013-06-05 00:54:00
8:54 PM,68.0,55.0,63,30.01,10.0,South,5.8,-,N/A,,Clear,170,2013-06-05 01:54:00
9:54 PM,64.9,55.0,70,30.03,10.0,SSE,3.5,-,N/A,,Clear,150,2013-06-05 02:54:00
10:54 PM,64.0,55.0,73,30.04,10.0,Calm,Calm,-,N/A,,Clear,0,2013-06-05 03:54:00
11:54 PM,63.0,55.0,75,30.02,10.0,ESE,3.5,-,N/A,,Clear,110,2013-06-05 04:54:00